Terminal Aerodrome Forecast
Issued by NWS Charleston, WV

Current Version | Previous Version | Text Only | Print | Product List | Glossary Off
Versions: 1 2 3 4 5 6 7 8 9 10 11 12 13 14 15 16 17 18 19 20 21 22 23 24 25

000
FTUS41 KRLX 230200 AAA
TAFEKN
TAF AMD
KEKN 230223Z 2302/2324 00000KT 5SM SHRA BR BKN030
     FM230700 00000KT 4SM BR BKN015
     FM231000 00000KT 2SM BR BKN020
     FM231300 00000KT 6SM BR BKN025
     FM231500 VRB03KT P6SM BKN030=

USA.gov is the U.S. government's official web portal to all federal, state and local government web resources and services.